Time;durP1;ratioP1;P1;durP2;ratioP2;P2;SDS_P1;SDS_P2;PMS_P1;PMS_P2;Temp;Humidity;BMP_temperature;BMP_pressure;BME280_temperature;BME280_humidity;BME280_pressure;Samples;Min_cycle;Max_cycle;Signal;HPM_P1;HPM_P2
2023/09/03 00:01:53;;;;;;;15.60;14.70;;;;;;;;;;5048192;28;20463;-43
2023/09/03 00:04:21;;;;;;;14.37;13.80;;;;;;;;;;5057861;28;20895;-42
2023/09/03 00:06:48;;;;;;;15.00;14.37;;;;;;;;;;5071888;28;20901;-45
2023/09/03 00:09:16;;;;;;;16.20;15.40;;;;;;;;;;5073539;28;20439;-43
2023/09/03 00:11:44;;;;;;;15.13;14.53;;;;;;;;;;5061713;28;20427;-44
2023/09/03 00:14:11;;;;;;;15.90;15.10;;;;;;;;;;5060958;28;20990;-41
2023/09/03 00:16:40;;;;;;;16.10;15.17;;;;;;;;;;5070789;28;20462;-48
2023/09/03 00:19:08;;;;;;;16.43;15.73;;;;;;;;;;5075024;28;20485;-42
2023/09/03 00:21:35;;;;;;;15.87;15.10;;;;;;;;;;5061073;28;20439;-42
2023/09/03 00:24:03;;;;;;;14.80;14.30;;;;;;;;;;5069455;28;20498;-42
2023/09/03 00:26:31;;;;;;;15.93;15.33;;;;;;;;;;5061754;28;20462;-43
2023/09/03 00:28:58;;;;;;;16.53;15.73;;;;;;;;;;5069117;28;20446;-43
2023/09/03 00:31:26;;;;;;;16.43;15.53;;;;;;;;;;5058028;28;20439;-41
2023/09/03 00:33:55;;;;;;;17.53;16.20;;;;;;;;;;5061480;28;20471;-40
2023/09/03 00:36:23;;;;;;;16.33;15.53;;;;;;;;;;5063628;28;20467;-41
2023/09/03 00:38:50;;;;;;;17.10;16.30;;;;;;;;;;5061015;28;20435;-43
2023/09/03 00:41:18;;;;;;;18.77;17.67;;;;;;;;;;5060495;28;20511;-41
2023/09/03 00:43:45;;;;;;;17.83;16.73;;;;;;;;;;5059259;28;20470;-41
2023/09/03 00:46:13;;;;;;;17.50;16.70;;;;;;;;;;5057317;28;20546;-40
2023/09/03 00:48:41;;;;;;;17.83;16.93;;;;;;;;;;5057455;28;20435;-42
2023/09/03 00:51:10;;;;;;;16.77;16.17;;;;;;;;;;5059776;28;20443;-41
2023/09/03 00:53:39;;;;;;;17.63;16.53;;;;;;;;;;5068437;28;20493;-47
2023/09/03 00:56:07;;;;;;;18.00;17.13;;;;;;;;;;5059584;28;20525;-42
2023/09/03 00:58:35;;;;;;;18.10;17.23;;;;;;;;;;5060333;28;20435;-44
2023/09/03 01:01:02;;;;;;;16.80;16.00;;;;;;;;;;5059776;28;20443;-43
2023/09/03 01:03:30;;;;;;;17.10;16.40;;;;;;;;;;5059619;28;20483;-47
2023/09/03 01:05:57;;;;;;;16.60;15.80;;;;;;;;;;5052794;28;20468;-45
2023/09/03 01:08:27;;;;;;;17.00;16.40;;;;;;;;;;5028203;28;20504;-43
2023/09/03 01:11:02;;;;;;;17.83;16.77;;;;;;;;;;5023645;28;20432;-43
2023/09/03 01:13:33;;;;;;;18.47;17.50;;;;;;;;;;5030552;28;20463;-43
2023/09/03 01:16:02;;;;;;;17.37;16.73;;;;;;;;;;5043244;28;20543;-46
2023/09/03 01:18:30;;;;;;;17.97;17.27;;;;;;;;;;5059166;28;20458;-40
2023/09/03 01:21:12;;;;;;;18.70;17.70;;;;;;;;;;5059326;28;20475;-44
2023/09/03 01:23:43;;;;;;;19.63;18.73;;;;;;;;;;5058185;28;20501;-44
2023/09/03 01:26:19;;;;;;;19.83;18.73;;;;;;;;;;5059375;28;20801;-42
2023/09/03 01:28:49;;;;;;;19.03;18.20;;;;;;;;;;5059945;28;20435;-44
2023/09/03 01:31:17;;;;;;;18.43;17.63;;;;;;;;;;5059075;28;20501;-40
2023/09/03 01:33:45;;;;;;;18.97;18.07;;;;;;;;;;5067823;28;20828;-41
2023/09/03 01:36:14;;;;;;;18.97;18.13;;;;;;;;;;5059432;28;20552;-46
2023/09/03 01:38:41;;;;;;;19.77;18.97;;;;;;;;;;5078302;28;20857;-40
2023/09/03 01:41:09;;;;;;;18.30;17.47;;;;;;;;;;5065866;28;20438;-41
2023/09/03 01:43:36;;;;;;;18.93;18.13;;;;;;;;;;5060001;28;20459;-44
2023/09/03 01:46:07;;;;;;;18.40;17.80;;;;;;;;;;5070361;28;20462;-41
2023/09/03 01:48:41;;;;;;;18.80;18.10;;;;;;;;;;5079777;28;20439;-41
2023/09/03 01:51:13;;;;;;;18.93;18.10;;;;;;;;;;5079308;28;20789;-45
2023/09/03 01:53:44;;;;;;;20.87;19.83;;;;;;;;;;5077455;28;20489;-40
2023/09/03 01:56:13;;;;;;;19.77;18.83;;;;;;;;;;5053878;28;20535;-42
2023/09/03 01:58:44;;;;;;;20.87;19.80;;;;;;;;;;5040278;28;20436;-44
2023/09/03 02:01:14;;;;;;;18.13;17.43;;;;;;;;;;5059221;28;20440;-42
2023/09/03 02:03:42;;;;;;;18.47;17.77;;;;;;;;;;5057341;28;20458;-43
2023/09/03 02:06:10;;;;;;;20.47;19.67;;;;;;;;;;5052909;28;20497;-44
2023/09/03 02:08:37;;;;;;;20.00;18.90;;;;;;;;;;5050865;28;20437;-41
2023/09/03 02:11:05;;;;;;;20.40;19.50;;;;;;;;;;5048605;28;20930;-40
2023/09/03 02:13:32;;;;;;;21.23;20.23;;;;;;;;;;5054226;28;20460;-41
2023/09/03 02:16:00;;;;;;;21.60;20.70;;;;;;;;;;5054926;28;20467;-41
2023/09/03 02:18:28;;;;;;;20.87;19.83;;;;;;;;;;5079205;28;20434;-42
2023/09/03 02:20:56;;;;;;;20.80;19.90;;;;;;;;;;5075564;28;20855;-41
2023/09/03 02:23:23;;;;;;;21.67;20.53;;;;;;;;;;5067655;28;20550;-43
2023/09/03 02:25:59;;;;;;;20.37;19.60;;;;;;;;;;5068847;28;20498;-41
2023/09/03 02:28:27;;;;;;;21.73;21.00;;;;;;;;;;5059502;28;20445;-41
2023/09/03 02:30:54;;;;;;;21.07;20.17;;;;;;;;;;5042965;28;20432;-43
2023/09/03 02:33:22;;;;;;;22.03;21.03;;;;;;;;;;5058078;28;20459;-40
2023/09/03 02:35:51;;;;;;;21.83;20.53;;;;;;;;;;5062360;28;20494;-42
2023/09/03 02:38:19;;;;;;;23.30;22.40;;;;;;;;;;5047387;28;20432;-46
2023/09/03 02:40:47;;;;;;;22.13;21.17;;;;;;;;;;5053766;28;20447;-41
2023/09/03 02:43:15;;;;;;;21.97;21.07;;;;;;;;;;5062554;28;20533;-47
2023/09/03 02:45:43;;;;;;;22.13;21.23;;;;;;;;;;5062405;28;20546;-41
2023/09/03 02:48:10;;;;;;;22.67;21.87;;;;;;;;;;5062708;28;20431;-42
2023/09/03 02:50:38;;;;;;;23.10;22.10;;;;;;;;;;5054621;28;20446;-41
2023/09/03 02:53:07;;;;;;;22.40;21.47;;;;;;;;;;5062358;28;20945;-41
2023/09/03 02:55:34;;;;;;;24.50;23.23;;;;;;;;;;5062036;28;20459;-44
2023/09/03 02:58:02;;;;;;;23.23;22.10;;;;;;;;;;5054611;28;20467;-43
2023/09/03 03:00:29;;;;;;;22.70;21.80;;;;;;;;;;5054777;28;20526;-41
2023/09/03 03:02:57;;;;;;;24.93;23.70;;;;;;;;;;5058742;28;20840;-42
2023/09/03 03:05:24;;;;;;;24.37;23.47;;;;;;;;;;5049213;28;20466;-42
2023/09/03 03:07:52;;;;;;;22.93;22.13;;;;;;;;;;5072914;28;20799;-43
2023/09/03 03:10:21;;;;;;;23.60;22.70;;;;;;;;;;5067857;28;20461;-42
2023/09/03 03:12:48;;;;;;;24.03;22.93;;;;;;;;;;5061320;28;20465;-43
2023/09/03 03:15:15;;;;;;;24.40;23.60;;;;;;;;;;5058207;28;21155;-43
2023/09/03 03:17:43;;;;;;;23.90;22.90;;;;;;;;;;5059695;28;21005;-46
2023/09/03 03:20:11;;;;;;;26.07;24.70;;;;;;;;;;5061975;28;20435;-44
2023/09/03 03:22:38;;;;;;;27.00;25.90;;;;;;;;;;5062027;28;20435;-46
2023/09/03 03:25:06;;;;;;;26.10;25.10;;;;;;;;;;5061837;28;20486;-45
2023/09/03 03:27:37;;;;;;;26.27;25.27;;;;;;;;;;5061821;28;20804;-43
2023/09/03 03:30:05;;;;;;;26.60;25.70;;;;;;;;;;5054975;28;20518;-43
2023/09/03 03:32:32;;;;;;;25.33;24.23;;;;;;;;;;5061633;28;20466;-42
2023/09/03 03:35:00;;;;;;;26.30;25.30;;;;;;;;;;5052931;28;20454;-43
2023/09/03 03:37:28;;;;;;;26.37;25.40;;;;;;;;;;5061277;28;20471;-41
2023/09/03 03:39:55;;;;;;;28.20;27.10;;;;;;;;;;5061628;28;20439;-41
2023/09/03 03:42:23;;;;;;;31.47;29.83;;;;;;;;;;5061636;28;20466;-43
2023/09/03 03:44:52;;;;;;;30.53;29.30;;;;;;;;;;5061176;28;20498;-40
2023/09/03 03:47:19;;;;;;;29.20;27.90;;;;;;;;;;5062187;28;20435;-44
2023/09/03 03:49:46;;;;;;;29.17;27.97;;;;;;;;;;5061228;28;20981;-41
2023/09/03 03:52:14;;;;;;;28.63;27.53;;;;;;;;;;5061355;28;20958;-42
2023/09/03 03:54:41;;;;;;;29.00;28.00;;;;;;;;;;5060947;28;20455;-42
2023/09/03 03:57:09;;;;;;;28.87;27.77;;;;;;;;;;5061712;28;20471;-43
2023/09/03 03:59:36;;;;;;;31.40;29.90;;;;;;;;;;5061350;28;20431;-43
2023/09/03 04:02:05;;;;;;;29.70;28.40;;;;;;;;;;5061734;28;20435;-41
2023/09/03 04:04:33;;;;;;;29.80;28.40;;;;;;;;;;5061713;28;20950;-43
2023/09/03 04:07:00;;;;;;;30.63;29.40;;;;;;;;;;5029981;28;20473;-44
2023/09/03 04:09:27;;;;;;;30.27;29.07;;;;;;;;;;5036533;28;20456;-41
2023/09/03 04:11:55;;;;;;;29.23;28.23;;;;;;;;;;5024270;28;20464;-40
2023/09/03 04:14:22;;;;;;;31.33;30.13;;;;;;;;;;5040978;28;20518;-46
2023/09/03 04:16:50;;;;;;;31.87;30.33;;;;;;;;;;5040307;28;20880;-45
2023/09/03 04:19:19;;;;;;;30.93;29.73;;;;;;;;;;5041098;28;20435;-41
2023/09/03 04:21:46;;;;;;;31.97;30.77;;;;;;;;;;5040777;28;20443;-43
2023/09/03 04:24:14;;;;;;;32.83;31.63;;;;;;;;;;5040094;28;20455;-40
2023/09/03 04:26:42;;;;;;;31.43;30.07;;;;;;;;;;5040418;28;20496;-41
2023/09/03 04:29:09;;;;;;;30.80;29.60;;;;;;;;;;5049173;28;20823;-43
2023/09/03 04:31:36;;;;;;;31.60;30.47;;;;;;;;;;5056980;28;20478;-46
2023/09/03 04:34:05;;;;;;;33.27;31.70;;;;;;;;;;5037087;28;20827;-47
2023/09/03 04:36:34;;;;;;;31.60;30.37;;;;;;;;;;5044164;28;20464;-45
2023/09/03 04:39:03;;;;;;;32.23;30.83;;;;;;;;;;5049417;28;20508;-45
2023/09/03 04:41:31;;;;;;;31.40;30.30;;;;;;;;;;5048605;28;20499;-44
2023/09/03 04:44:07;;;;;;;34.13;32.23;;;;;;;;;;5060361;28;20459;-44
2023/09/03 04:46:35;;;;;;;33.90;32.50;;;;;;;;;;5044303;28;20467;-47
2023/09/03 04:49:03;;;;;;;34.37;33.00;;;;;;;;;;5044326;28;20455;-41
2023/09/03 04:51:30;;;;;;;33.13;31.83;;;;;;;;;;5052881;28;20471;-42
2023/09/03 04:53:59;;;;;;;35.23;33.83;;;;;;;;;;5059507;28;20459;-43
2023/09/03 04:56:27;;;;;;;32.93;31.63;;;;;;;;;;5059929;28;20470;-43
2023/09/03 04:58:54;;;;;;;33.83;32.23;;;;;;;;;;5043794;28;20543;-43
2023/09/03 05:01:22;;;;;;;33.33;32.13;;;;;;;;;;5054501;28;20436;-43
2023/09/03 05:03:49;;;;;;;35.30;33.60;;;;;;;;;;5041091;28;20480;-44
2023/09/03 05:06:17;;;;;;;33.57;32.20;;;;;;;;;;5046754;28;20464;-47
2023/09/03 05:08:45;;;;;;;32.53;31.43;;;;;;;;;;5041654;28;20436;-43
2023/09/03 05:11:15;;;;;;;34.60;33.00;;;;;;;;;;5052061;28;20450;-44
2023/09/03 05:13:42;;;;;;;32.27;31.07;;;;;;;;;;5058614;28;20463;-41
2023/09/03 05:16:10;;;;;;;31.77;30.60;;;;;;;;;;5052307;28;20530;-47
2023/09/03 05:18:37;;;;;;;31.43;30.00;;;;;;;;;;5059674;28;20494;-42
2023/09/03 05:21:08;;;;;;;32.20;30.80;;;;;;;;;;5056283;28;20433;-45
2023/09/03 05:23:37;;;;;;;32.23;30.60;;;;;;;;;;5047279;28;20483;-44
2023/09/03 05:26:05;;;;;;;33.00;31.70;;;;;;;;;;5039056;28;20456;-44
2023/09/03 05:28:34;;;;;;;33.43;32.13;;;;;;;;;;5039339;28;20432;-43
2023/09/03 05:31:01;;;;;;;32.13;30.80;;;;;;;;;;5039051;28;20432;-44
2023/09/03 05:33:28;;;;;;;33.77;32.17;;;;;;;;;;5039020;28;20488;-45
2023/09/03 05:35:56;;;;;;;32.20;30.90;;;;;;;;;;5039161;28;20460;-41
2023/09/03 05:38:23;;;;;;;31.97;30.77;;;;;;;;;;5040019;28;20471;-43
2023/09/03 05:40:51;;;;;;;31.17;29.90;;;;;;;;;;5040412;28;20439;-44
2023/09/03 05:43:18;;;;;;;30.60;29.40;;;;;;;;;;5039802;28;20480;-45
2023/09/03 05:45:51;;;;;;;31.40;30.20;;;;;;;;;;5047665;28;20455;-42
2023/09/03 05:48:19;;;;;;;29.00;27.40;;;;;;;;;;5051010;28;20434;-45
2023/09/03 05:50:46;;;;;;;25.77;24.67;;;;;;;;;;5051246;28;20438;-41
2023/09/03 05:53:14;;;;;;;22.80;22.00;;;;;;;;;;5050498;28;20530;-44
2023/09/03 05:55:42;;;;;;;23.40;22.43;;;;;;;;;;5050574;28;20489;-45
2023/09/03 05:58:10;;;;;;;25.63;24.63;;;;;;;;;;5051105;28;20874;-46
2023/09/03 06:00:40;;;;;;;23.23;22.33;;;;;;;;;;5051128;28;21004;-39
2023/09/03 06:03:12;;;;;;;23.57;22.67;;;;;;;;;;5050948;28;20899;-42
2023/09/03 06:05:39;;;;;;;20.37;19.57;;;;;;;;;;5056804;28;20986;-42
2023/09/03 06:08:07;;;;;;;21.80;21.00;;;;;;;;;;5050715;28;20434;-42
2023/09/03 06:10:38;;;;;;;21.27;20.47;;;;;;;;;;5050867;28;20434;-40
2023/09/03 06:13:05;;;;;;;19.97;19.27;;;;;;;;;;5050790;28;20445;-41
2023/09/03 06:15:33;;;;;;;19.60;18.73;;;;;;;;;;5049728;28;20455;-42
2023/09/03 06:18:00;;;;;;;18.00;17.40;;;;;;;;;;5050405;28;20481;-40
2023/09/03 06:20:30;;;;;;;17.30;16.70;;;;;;;;;;5050689;28;20504;-43
2023/09/03 06:22:58;;;;;;;16.63;15.80;;;;;;;;;;5049904;28;20541;-40
2023/09/03 06:25:25;;;;;;;15.60;15.10;;;;;;;;;;5050307;28;20505;-40
2023/09/03 06:27:53;;;;;;;16.03;15.40;;;;;;;;;;5050661;28;20434;-41
2023/09/03 06:30:20;;;;;;;15.13;14.47;;;;;;;;;;5050769;28;20462;-47
2023/09/03 06:32:48;;;;;;;15.00;14.50;;;;;;;;;;5050370;28;20470;-42
2023/09/03 06:35:15;;;;;;;15.40;14.60;;;;;;;;;;5049938;28;20482;-40
2023/09/03 06:37:44;;;;;;;14.13;13.40;;;;;;;;;;5050530;28;21022;-42
2023/09/03 06:40:14;;;;;;;11.73;11.33;;;;;;;;;;5050608;28;20529;-44
2023/09/03 06:42:42;;;;;;;11.00;10.50;;;;;;;;;;5050515;28;20518;-42
2023/09/03 06:45:10;;;;;;;10.23;9.83;;;;;;;;;;5041839;28;21111;-42
2023/09/03 06:47:38;;;;;;;10.00;9.60;;;;;;;;;;5050647;28;20438;-41
2023/09/03 06:50:06;;;;;;;9.03;8.60;;;;;;;;;;5050292;28;20427;-45
2023/09/03 06:52:34;;;;;;;8.30;7.80;;;;;;;;;;5050378;28;21045;-41
2023/09/03 06:55:03;;;;;;;8.50;7.40;;;;;;;;;;5051076;28;21033;-41
2023/09/03 06:57:30;;;;;;;7.50;7.13;;;;;;;;;;5054382;28;20445;-41
2023/09/03 06:59:58;;;;;;;6.97;6.57;;;;;;;;;;5054210;28;21068;-43
2023/09/03 07:02:26;;;;;;;7.53;6.43;;;;;;;;;;5054029;28;20441;-43
2023/09/03 07:04:56;;;;;;;6.43;6.03;;;;;;;;;;5053797;28;20486;-41
2023/09/03 07:07:23;;;;;;;7.30;6.90;;;;;;;;;;5054324;28;20439;-43
2023/09/03 07:09:51;;;;;;;6.90;6.50;;;;;;;;;;5053905;28;20459;-46
2023/09/03 07:12:20;;;;;;;6.90;6.50;;;;;;;;;;5053949;28;20950;-41
2023/09/03 07:14:47;;;;;;;6.73;6.43;;;;;;;;;;5053222;28;20541;-41
2023/09/03 07:17:15;;;;;;;5.83;5.63;;;;;;;;;;5053818;28;20525;-41
2023/09/03 07:19:42;;;;;;;6.13;5.73;;;;;;;;;;5053995;28;20466;-41
2023/09/03 07:22:09;;;;;;;6.33;6.03;;;;;;;;;;5053888;28;20431;-41
2023/09/03 07:24:37;;;;;;;6.37;5.87;;;;;;;;;;5053294;28;20442;-43
2023/09/03 07:27:05;;;;;;;6.30;5.90;;;;;;;;;;5053453;28;20435;-41
2023/09/03 07:29:34;;;;;;;5.63;5.33;;;;;;;;;;5053472;28;20522;-43
2023/09/03 07:32:02;;;;;;;7.50;6.27;;;;;;;;;;5053612;28;20802;-41
2023/09/03 07:34:29;;;;;;;6.50;5.80;;;;;;;;;;5053412;28;20509;-45
2023/09/03 07:36:57;;;;;;;6.57;6.27;;;;;;;;;;5052861;28;21008;-41
2023/09/03 07:39:24;;;;;;;6.07;5.70;;;;;;;;;;5053211;28;20568;-42
2023/09/03 07:41:56;;;;;;;6.10;5.60;;;;;;;;;;5053214;28;20450;-41
2023/09/03 07:44:24;;;;;;;6.60;6.13;;;;;;;;;;5053476;28;20516;-41
2023/09/03 07:46:53;;;;;;;6.67;6.13;;;;;;;;;;5052735;28;20486;-44
2023/09/03 07:49:21;;;;;;;6.37;5.97;;;;;;;;;;5053465;28;20454;-42
2023/09/03 07:51:48;;;;;;;6.30;6.00;;;;;;;;;;5053113;28;20518;-41
2023/09/03 07:54:16;;;;;;;6.93;6.40;;;;;;;;;;5052908;28;20450;-43
2023/09/03 07:56:43;;;;;;;6.20;5.60;;;;;;;;;;5052686;28;20976;-41
2023/09/03 07:59:11;;;;;;;6.13;5.73;;;;;;;;;;5052832;28;20477;-42
2023/09/03 08:01:39;;;;;;;5.87;5.53;;;;;;;;;;5053056;28;20957;-41
2023/09/03 08:04:08;;;;;;;5.57;5.27;;;;;;;;;;5052609;28;20550;-43
2023/09/03 08:06:36;;;;;;;5.60;5.20;;;;;;;;;;5051395;28;20822;-41
2023/09/03 08:09:04;;;;;;;6.30;5.70;;;;;;;;;;5052976;28;20493;-45
2023/09/03 08:11:31;;;;;;;5.40;5.10;;;;;;;;;;5052869;28;21132;-41
2023/09/03 08:14:00;;;;;;;6.53;6.00;;;;;;;;;;5052489;28;20536;-44
2023/09/03 08:16:28;;;;;;;6.00;5.70;;;;;;;;;;5052362;28;20835;-41
2023/09/03 08:18:55;;;;;;;7.47;6.47;;;;;;;;;;5052775;28;20434;-41
2023/09/03 08:21:24;;;;;;;6.07;5.47;;;;;;;;;;5052686;28;21002;-42
2023/09/03 08:23:52;;;;;;;7.00;6.57;;;;;;;;;;5051924;28;20469;-42
2023/09/03 08:26:19;;;;;;;5.50;5.10;;;;;;;;;;5052226;28;20462;-46
2023/09/03 08:28:46;;;;;;;5.13;4.83;;;;;;;;;;5052940;28;20439;-40
2023/09/03 08:31:14;;;;;;;7.13;6.53;;;;;;;;;;5052495;28;20450;-41
2023/09/03 08:33:42;;;;;;;5.37;4.80;;;;;;;;;;5052211;28;20455;-46
2023/09/03 08:36:09;;;;;;;5.90;5.70;;;;;;;;;;5051795;28;20509;-41
2023/09/03 08:38:38;;;;;;;7.07;6.27;;;;;;;;;;5052294;28;20532;-43
2023/09/03 08:41:05;;;;;;;5.90;5.63;;;;;;;;;;5052188;28;21068;-41
2023/09/03 08:43:33;;;;;;;6.33;5.97;;;;;;;;;;5052032;28;20538;-42
2023/09/03 08:46:02;;;;;;;6.33;5.43;;;;;;;;;;5051800;28;20458;-44
2023/09/03 08:48:29;;;;;;;6.40;5.90;;;;;;;;;;5052276;28;20493;-42
2023/09/03 08:50:57;;;;;;;6.80;5.87;;;;;;;;;;5051976;28;20469;-43
2023/09/03 08:53:24;;;;;;;5.03;4.80;;;;;;;;;;5052091;28;20834;-44
2023/09/03 08:55:53;;;;;;;5.60;5.30;;;;;;;;;;5051653;28;20807;-42
2023/09/03 08:58:21;;;;;;;6.00;5.50;;;;;;;;;;5051890;28;20459;-40
2023/09/03 09:00:49;;;;;;;5.33;4.93;;;;;;;;;;5051731;28;20863;-41
2023/09/03 09:03:17;;;;;;;5.07;4.73;;;;;;;;;;5051378;28;20454;-40
2023/09/03 09:05:47;;;;;;;5.00;4.70;;;;;;;;;;5051356;28;20466;-43
2023/09/03 09:08:15;;;;;;;4.47;4.17;;;;;;;;;;5051849;28;20453;-43
2023/09/03 09:10:47;;;;;;;5.20;5.00;;;;;;;;;;5052000;28;20439;-42
2023/09/03 09:13:19;;;;;;;4.83;4.43;;;;;;;;;;5051197;28;20466;-41
2023/09/03 09:15:47;;;;;;;5.20;4.90;;;;;;;;;;5051191;28;20509;-45
2023/09/03 09:18:15;;;;;;;4.93;4.63;;;;;;;;;;5051395;28;20826;-42
2023/09/03 09:20:42;;;;;;;4.10;3.90;;;;;;;;;;5051683;28;20479;-41
2023/09/03 09:23:10;;;;;;;4.90;4.47;;;;;;;;;;5051011;28;20441;-44
2023/09/03 09:25:37;;;;;;;4.83;4.43;;;;;;;;;;5042398;28;20998;-42
2023/09/03 09:28:12;;;;;;;4.90;4.60;;;;;;;;;;5031473;28;21003;-41
2023/09/03 09:30:53;;;;;;;4.70;4.40;;;;;;;;;;5031557;28;20458;-41
2023/09/03 09:33:21;;;;;;;4.40;3.90;;;;;;;;;;5023591;28;20480;-44
2023/09/03 09:35:49;;;;;;;5.27;4.17;;;;;;;;;;5041638;28;20473;-44
2023/09/03 09:38:17;;;;;;;5.00;4.70;;;;;;;;;;5051197;28;20522;-45
2023/09/03 09:40:45;;;;;;;4.93;4.20;;;;;;;;;;5051027;28;20473;-41
2023/09/03 09:43:12;;;;;;;4.17;3.97;;;;;;;;;;5050859;28;20461;-43
2023/09/03 09:45:46;;;;;;;5.47;5.07;;;;;;;;;;5050977;28;20540;-42
2023/09/03 09:48:15;;;;;;;5.10;4.70;;;;;;;;;;5050917;28;20442;-41
2023/09/03 09:50:43;;;;;;;4.43;4.03;;;;;;;;;;5051219;28;20505;-42
2023/09/03 09:53:21;;;;;;;3.97;3.67;;;;;;;;;;5050877;28;20747;-45
2023/09/03 09:55:57;;;;;;;4.30;4.00;;;;;;;;;;5050763;28;20485;-43
2023/09/03 09:58:34;;;;;;;5.53;3.83;;;;;;;;;;5056260;28;20479;-41
2023/09/03 10:01:02;;;;;;;3.80;3.30;;;;;;;;;;5070888;28;20468;-41
2023/09/03 10:03:40;;;;;;;4.43;3.70;;;;;;;;;;5070715;28;20450;-43
2023/09/03 10:06:08;;;;;;;4.70;3.90;;;;;;;;;;5057531;28;20462;-43
2023/09/03 10:08:35;;;;;;;4.30;3.90;;;;;;;;;;5050939;28;20922;-43
2023/09/03 10:11:03;;;;;;;4.50;4.10;;;;;;;;;;5051029;28;20426;-41
2023/09/03 10:13:31;;;;;;;5.53;3.83;;;;;;;;;;5050482;28;20467;-42
2023/09/03 10:16:02;;;;;;;6.40;3.60;;;;;;;;;;5050291;28;20465;-41
2023/09/03 10:18:32;;;;;;;4.50;3.33;;;;;;;;;;5050949;28;20443;-44
2023/09/03 10:21:04;;;;;;;5.73;3.90;;;;;;;;;;5050694;28;20540;-42
2023/09/03 10:23:34;;;;;;;3.70;3.57;;;;;;;;;;5045669;28;20486;-42
2023/09/03 10:26:03;;;;;;;3.80;3.50;;;;;;;;;;5050395;28;20915;-41
2023/09/03 10:28:35;;;;;;;4.00;3.47;;;;;;;;;;5050910;28;20438;-41
2023/09/03 10:31:02;;;;;;;4.83;4.00;;;;;;;;;;5053293;28;20514;-46
2023/09/03 10:33:30;;;;;;;3.57;3.37;;;;;;;;;;5054461;28;20459;-41
2023/09/03 10:36:18;;;;;;;8.40;3.67;;;;;;;;;;5054243;28;20561;-41
2023/09/03 10:38:46;;;;;;;4.90;3.30;;;;;;;;;;5054759;28;20440;-42
2023/09/03 10:41:17;;;;;;;3.10;2.90;;;;;;;;;;5054520;28;20565;-41
2023/09/03 10:43:50;;;;;;;3.30;3.00;;;;;;;;;;5054513;28;20454;-41
2023/09/03 10:46:17;;;;;;;3.03;2.93;;;;;;;;;;5054170;28;20469;-43
2023/09/03 10:48:52;;;;;;;10.00;3.53;;;;;;;;;;5054615;28;20492;-42
2023/09/03 10:51:34;;;;;;;3.60;3.40;;;;;;;;;;5054312;28;20778;-44
2023/09/03 10:54:15;;;;;;;6.13;2.70;;;;;;;;;;5053865;28;20454;-43
2023/09/03 10:57:01;;;;;;;3.70;3.47;;;;;;;;;;5053803;28;20463;-44
2023/09/03 10:59:54;;;;;;;3.20;3.00;;;;;;;;;;5054220;28;20437;-44
2023/09/03 11:02:25;;;;;;;3.60;3.30;;;;;;;;;;5053717;28;20474;-44
2023/09/03 11:05:08;;;;;;;3.70;3.17;;;;;;;;;;5040430;28;21028;-41
2023/09/03 11:07:37;;;;;;;3.13;3.00;;;;;;;;;;5062601;28;21023;-44
2023/09/03 11:10:25;;;;;;;3.47;3.27;;;;;;;;;;5054073;28;20470;-45
2023/09/03 11:12:53;;;;;;;3.70;3.50;;;;;;;;;;5053759;28;20438;-43
2023/09/03 11:15:21;;;;;;;3.43;3.23;;;;;;;;;;5053896;28;20446;-46
2023/09/03 11:17:50;;;;;;;2.90;2.70;;;;;;;;;;5053786;28;20442;-46
2023/09/03 11:20:27;;;;;;;3.13;3.03;;;;;;;;;;5053739;28;20434;-44
2023/09/03 11:23:15;;;;;;;3.10;3.00;;;;;;;;;;5056280;28;20463;-42
2023/09/03 11:25:43;;;;;;;3.20;3.00;;;;;;;;;;5053279;28;20462;-46
2023/09/03 11:28:12;;;;;;;4.10;3.90;;;;;;;;;;5053720;28;20526;-43
2023/09/03 11:30:40;;;;;;;3.63;3.43;;;;;;;;;;5053744;28;20435;-46
2023/09/03 11:33:09;;;;;;;3.53;3.23;;;;;;;;;;5053212;28;20872;-44
2023/09/03 11:35:43;;;;;;;4.37;4.00;;;;;;;;;;5053142;28;20542;-41
2023/09/03 11:38:10;;;;;;;3.70;3.40;;;;;;;;;;5053512;28;20434;-46
2023/09/03 11:40:39;;;;;;;5.10;3.70;;;;;;;;;;5053089;28;20711;-41
2023/09/03 11:43:08;;;;;;;3.90;3.60;;;;;;;;;;5053024;28;20435;-42
2023/09/03 11:45:35;;;;;;;3.57;3.00;;;;;;;;;;5053022;28;20482;-42
2023/09/03 11:48:06;;;;;;;3.03;2.93;;;;;;;;;;5060123;28;20438;-46
2023/09/03 11:50:34;;;;;;;3.20;3.00;;;;;;;;;;5061275;28;20867;-46
2023/09/03 11:53:04;;;;;;;3.47;3.27;;;;;;;;;;5061379;28;20463;-43
2023/09/03 11:55:34;;;;;;;3.57;3.13;;;;;;;;;;5060632;28;20546;-43
2023/09/03 11:58:03;;;;;;;3.87;3.57;;;;;;;;;;5069429;28;20445;-44
2023/09/03 12:00:31;;;;;;;4.20;3.50;;;;;;;;;;5068446;28;20441;-47
2023/09/03 12:02:59;;;;;;;3.77;3.57;;;;;;;;;;5076780;28;20477;-46
2023/09/03 12:05:27;;;;;;;3.90;3.50;;;;;;;;;;5056028;28;20584;-41
2023/09/03 12:08:00;;;;;;;3.60;3.30;;;;;;;;;;5073686;28;20430;-43
2023/09/03 12:10:28;;;;;;;3.20;2.93;;;;;;;;;;5060764;28;20441;-44
2023/09/03 12:12:56;;;;;;;3.77;3.57;;;;;;;;;;5060321;28;20459;-43
2023/09/03 12:15:25;;;;;;;3.50;3.20;;;;;;;;;;5060612;28;21047;-45
2023/09/03 12:17:52;;;;;;;4.37;3.30;;;;;;;;;;5067993;28;20465;-42
2023/09/03 12:20:33;;;;;;;4.07;3.77;;;;;;;;;;5079852;28;20503;-45
2023/09/03 12:23:10;;;;;;;3.47;3.17;;;;;;;;;;5066004;28;20467;-44
2023/09/03 12:25:38;;;;;;;3.97;3.30;;;;;;;;;;5059703;28;20514;-44
2023/09/03 12:28:06;;;;;;;3.33;3.17;;;;;;;;;;5060628;28;20459;-44
2023/09/03 12:30:52;;;;;;;3.40;3.20;;;;;;;;;;5060565;28;20484;-41
2023/09/03 12:33:21;;;;;;;3.53;3.23;;;;;;;;;;5060462;28;20446;-42
2023/09/03 12:36:05;;;;;;;3.70;3.50;;;;;;;;;;5060382;28;20487;-43
2023/09/03 12:38:46;;;;;;;3.97;3.40;;;;;;;;;;5052953;28;20502;-43
2023/09/03 12:41:14;;;;;;;3.77;3.47;;;;;;;;;;5061095;28;20502;-42
2023/09/03 12:43:41;;;;;;;5.13;3.60;;;;;;;;;;5060018;28;20519;-41
2023/09/03 12:46:12;;;;;;;3.47;3.33;;;;;;;;;;5063903;28;20484;-42
2023/09/03 12:48:41;;;;;;;4.03;3.93;;;;;;;;;;5060234;28;20832;-42
2023/09/03 12:51:10;;;;;;;3.70;3.50;;;;;;;;;;5060650;28;20439;-40
2023/09/03 12:53:38;;;;;;;4.17;3.97;;;;;;;;;;5058869;28;20458;-45
2023/09/03 12:56:06;;;;;;;8.33;3.77;;;;;;;;;;5051583;28;20483;-46
2023/09/03 12:58:34;;;;;;;4.00;3.73;;;;;;;;;;5053379;28;20434;-42
2023/09/03 13:01:01;;;;;;;4.80;4.33;;;;;;;;;;5059884;28;20522;-43
2023/09/03 13:03:29;;;;;;;3.70;3.50;;;;;;;;;;5043048;28;20477;-40
2023/09/03 13:05:58;;;;;;;4.10;3.70;;;;;;;;;;5059991;28;20516;-44
2023/09/03 13:08:25;;;;;;;4.10;3.80;;;;;;;;;;5051592;28;20439;-43
2023/09/03 13:10:53;;;;;;;3.77;3.67;;;;;;;;;;5060373;28;20441;-41
2023/09/03 13:13:20;;;;;;;3.90;3.70;;;;;;;;;;5056930;28;20462;-42
2023/09/03 13:15:50;;;;;;;5.00;3.40;;;;;;;;;;5054437;28;20477;-41
2023/09/03 13:18:18;;;;;;;3.70;3.40;;;;;;;;;;5060217;28;20439;-43
2023/09/03 13:20:45;;;;;;;3.83;3.53;;;;;;;;;;5060508;28;20441;-46
2023/09/03 13:23:14;;;;;;;6.07;3.23;;;;;;;;;;5043751;28;20479;-43
2023/09/03 13:25:42;;;;;;;4.00;3.60;;;;;;;;;;5049320;28;20466;-42
2023/09/03 13:28:09;;;;;;;4.80;3.47;;;;;;;;;;5059661;28;20435;-44
2023/09/03 13:30:37;;;;;;;3.60;3.40;;;;;;;;;;5060620;28;20431;-41
2023/09/03 13:33:16;;;;;;;3.67;3.47;;;;;;;;;;5059312;28;20474;-43
2023/09/03 13:35:44;;;;;;;3.60;3.40;;;;;;;;;;5063555;28;20465;-42
2023/09/03 13:38:11;;;;;;;4.13;3.93;;;;;;;;;;5058966;28;20438;-44
2023/09/03 13:40:40;;;;;;;4.00;3.80;;;;;;;;;;5052851;28;20469;-42
2023/09/03 13:43:07;;;;;;;3.90;3.70;;;;;;;;;;5059743;28;20513;-41
2023/09/03 13:45:35;;;;;;;3.80;3.60;;;;;;;;;;5059174;28;20494;-42
2023/09/03 13:48:03;;;;;;;4.00;3.80;;;;;;;;;;5052228;28;20939;-42
2023/09/03 13:50:30;;;;;;;4.33;3.93;;;;;;;;;;5059862;28;20431;-42
2023/09/03 13:52:58;;;;;;;3.73;3.43;;;;;;;;;;5059308;28;20872;-44
2023/09/03 13:55:26;;;;;;;9.37;4.00;;;;;;;;;;5058746;28;20462;-41
2023/09/03 13:57:55;;;;;;;4.97;4.50;;;;;;;;;;5059461;28;20469;-42
2023/09/03 14:00:22;;;;;;;3.90;3.67;;;;;;;;;;5049651;28;20522;-44
2023/09/03 14:02:50;;;;;;;4.13;3.70;;;;;;;;;;5053152;28;20492;-43
2023/09/03 14:05:19;;;;;;;5.33;3.70;;;;;;;;;;5058757;28;20455;-44
2023/09/03 14:07:47;;;;;;;3.77;3.47;;;;;;;;;;5054016;28;20440;-45
2023/09/03 14:10:14;;;;;;;4.87;3.63;;;;;;;;;;5056070;28;20466;-43
2023/09/03 14:12:41;;;;;;;4.77;3.90;;;;;;;;;;5051873;28;20615;-42
2023/09/03 14:15:12;;;;;;;4.70;4.30;;;;;;;;;;5059301;28;20469;-46
2023/09/03 14:17:40;;;;;;;4.27;4.07;;;;;;;;;;5059487;28;20434;-41
2023/09/03 14:20:08;;;;;;;4.23;3.80;;;;;;;;;;5059185;28;20458;-41
2023/09/03 14:22:37;;;;;;;4.10;3.80;;;;;;;;;;5049071;28;20478;-41
2023/09/03 14:25:04;;;;;;;4.20;4.00;;;;;;;;;;5054903;28;20485;-45
2023/09/03 14:27:32;;;;;;;4.20;3.90;;;;;;;;;;5050767;28;20430;-42
2023/09/03 14:29:59;;;;;;;3.90;3.67;;;;;;;;;;5058904;28;20481;-41
2023/09/03 14:32:28;;;;;;;5.30;3.73;;;;;;;;;;5048225;28;20431;-41
2023/09/03 14:34:57;;;;;;;5.30;3.87;;;;;;;;;;5053384;28;20853;-46
2023/09/03 14:37:24;;;;;;;5.30;3.90;;;;;;;;;;5058718;28;20522;-41
2023/09/03 14:39:52;;;;;;;4.63;4.23;;;;;;;;;;5051164;28;20431;-46
2023/09/03 14:42:20;;;;;;;5.80;4.30;;;;;;;;;;5057598;28;20530;-42